Fairview, WY (83119)

10:41 PM MDT on August 26, 2016 (GMT -0600)
KWYAFTON2 | | Change Station

Elev 6312 ft 42.67 °N, 110.94 °W | Updated 1 minute ago

Clear
Clear
50.5 °F
Feels Like 50.5 °F
N
4.0
Wind Variable Wind from ESE

Today
High -- | Low -- °F
--% Chance of Precip.
Yesterday
High -- | Low -- °F
Precip. -- in
Pressure 30.13 in
Visibility 10.0 miles
Clouds Clear
Dew Point 26 °F
Humidity 38%
Rainfall 0.00 in
Snow Depth Not available.
6:43 AM 8:07 PM
Waning Crescent, 28% visible
METAR KAFO 270435Z AUTO 23004KT 10SM CLR 06/00 A3013 RMK AO2 TSNO
Pressure 30.13 in
Visibility 10.0 miles
Clouds Clear
Dew Point 26 °F
Humidity 38%
Rainfall 0.00 in
Snow Depth Not available.
6:43 AM 8:07 PM
Waning Crescent, 28% visible
METAR KAFO 270435Z AUTO 23004KT 10SM CLR 06/00 A3013 RMK AO2 TSNO

10-Day Weather Forecast

Almanac

Astronomy

Aug. 26, 2016 Rise Set
Actual Time
Civil Twilight
Nautical Twilight
Astronomical Twilight
Moon
Length of Visible Light
Length of Day
Tomorrow will be .
, % of the Moon is Illuminated

Today's Extremes

State Highs State Lows

Community

WunderPhotos

Upload Photos

1,935,299 photos uploaded!

WunderBlog® & News

Nearby

Air Quality

  Air Quality AQ Index Pollutant
Not available.

Snow Depth

Station Depth Elevation

Earthquake Activity

City Distance Mag. Time & Date
Minimum magnitude displayed is 2.5.

Coastal Water Temperatures

Place Temperature

Stations

Nearby Weather Stations

Station Location Temp. Windchill Dew Point Humidity Wind Precip. Elev Updated Type
                   

Watches & Warnings

Fire Weather Watch
Issued: 1:29 PM MDT Aug. 26, 2016 – National Weather Service

... Fire Weather Watch in effect from Saturday afternoon through
Saturday evening for very low relative humidity... strong wind
gusts and critically dry fuels for fire weather zone 414...

The National Weather Service in Riverton has issued a Fire
Weather Watch... which is in effect from Saturday afternoon
through Saturday evening.

* Affected area... fire weather zone 414.

* Wind... west to southwest 10 to 15 with gusts to 25 mph.

* Humidity... 10 to 15 percent.

* Impacts... any fires that develop will likely spread rapidly.
Outdoor burning is not recommended.

Precautionary/preparedness actions...

A Fire Weather Watch means that critical fire weather conditions
are forecast to occur. Listen for later forecasts and possible
red flag warnings.